Time;durP1;ratioP1;P1;durP2;ratioP2;P2;SDS_P1;SDS_P2;PMS_P1;PMS_P2;Temp;Humidity;BMP_temperature;BMP_pressure;BME280_temperature;BME280_humidity;BME280_pressure;Samples;Min_cycle;Max_cycle;Signal;HPM_P1;HPM_P2
2022/09/10 00:01:45;;;;;;;5.25;1.92;;;16.40;96.00;;;;;;4920115;29;20036;-70
2022/09/10 00:04:13;;;;;;;3.05;1.50;;;16.30;96.10;;;;;;4917779;29;20051;-71
2022/09/10 00:06:41;;;;;;;4.30;1.50;;;16.30;96.10;;;;;;4918877;29;20492;-70
2022/09/10 00:09:07;;;;;;;5.13;1.63;;;16.30;96.30;;;;;;4915594;29;20087;-71
2022/09/10 00:11:34;;;;;;;6.47;1.63;;;16.30;96.20;;;;;;4917391;29;20034;-70
2022/09/10 00:14:04;;;;;;;4.43;1.55;;;16.20;96.30;;;;;;4923904;28;20120;-71
2022/09/10 00:16:31;;;;;;;4.70;1.48;;;16.20;96.40;;;;;;4917740;29;20035;-71
2022/09/10 00:18:57;;;;;;;3.30;1.88;;;16.20;96.30;;;;;;4920759;29;20835;-70
2022/09/10 00:21:23;;;;;;;1.88;1.10;;;16.20;96.40;;;;;;4919456;29;20071;-71
2022/09/10 00:23:49;;;;;;;1.45;1.35;;;16.20;96.30;;;;;;4918611;29;20122;-71
2022/09/10 00:26:15;;;;;;;3.67;1.27;;;16.20;96.30;;;;;;4917202;29;20040;-70
2022/09/10 00:28:42;;;;;;;2.20;1.60;;;16.20;96.30;;;;;;4916994;29;20039;-70
2022/09/10 00:31:08;;;;;;;3.20;1.30;;;16.30;96.10;;;;;;4918951;29;20071;-70
2022/09/10 00:33:33;;;;;;;2.15;1.30;;;16.20;96.00;;;;;;4924195;29;20039;-70
2022/09/10 00:35:59;;;;;;;2.17;1.30;;;16.20;95.90;;;;;;4922301;29;20035;-71
2022/09/10 00:38:30;;;;;;;2.42;1.23;;;16.20;95.90;;;;;;4918799;29;20511;-71
2022/09/10 00:41:03;;;;;;;2.40;1.30;;;16.20;95.90;;;;;;4919566;29;20400;-70
2022/09/10 00:43:49;;;;;;;3.78;1.80;;;16.10;95.90;;;;;;4916229;29;20179;-70
2022/09/10 00:46:32;;;;;;;6.68;1.52;;;16.10;96.00;;;;;;4915919;29;20036;-70
2022/09/10 00:49:02;;;;;;;2.05;1.10;;;16.10;96.10;;;;;;4913748;29;20156;-70
2022/09/10 00:51:32;;;;;;;4.95;1.48;;;16.00;96.20;;;;;;4924001;29;20050;-70
2022/09/10 00:54:00;;;;;;;5.47;1.20;;;16.00;96.20;;;;;;4923545;29;20035;-70
2022/09/10 00:56:27;;;;;;;2.90;1.55;;;16.00;96.20;;;;;;4919152;29;20032;-70
2022/09/10 00:58:53;;;;;;;3.53;1.70;;;15.90;96.10;;;;;;4919733;29;20038;-71
2022/09/10 01:01:19;;;;;;;1.30;1.15;;;15.90;96.20;;;;;;4918652;29;20036;-70
2022/09/10 01:03:46;;;;;;;3.13;1.20;;;15.90;96.20;;;;;;4916472;29;20079;-70
2022/09/10 01:06:12;;;;;;;4.55;1.65;;;15.90;96.20;;;;;;4914428;29;20040;-70
2022/09/10 01:08:38;;;;;;;3.83;1.20;;;15.90;96.20;;;;;;4915376;29;20424;-71
2022/09/10 01:11:26;;;;;;;3.60;1.63;;;15.80;96.20;;;;;;4923006;29;20094;-70
2022/09/10 01:14:26;;;;;;;1.98;1.20;;;15.80;96.30;;;;;;4920289;29;20095;-69
2022/09/10 01:17:22;;;;;;;7.50;1.70;;;15.70;96.40;;;;;;4917680;29;20307;-72
2022/09/10 01:20:09;;;;;;;2.83;1.67;;;15.70;96.60;;;;;;4934199;29;20050;-70
2022/09/10 01:23:03;;;;;;;1.55;1.40;;;15.70;96.70;;;;;;4916379;29;20123;-70
2022/09/10 01:25:34;;;;;;;1.58;1.10;;;15.70;96.80;;;;;;4920513;29;20123;-70
2022/09/10 01:28:07;;;;;;;2.90;1.25;;;15.60;96.70;;;;;;4919652;29;20039;-71
2022/09/10 01:30:56;;;;;;;4.45;1.50;;;15.60;96.70;;;;;;4938987;28;20489;-70
2022/09/10 01:33:34;;;;;;;5.45;1.45;;;15.60;96.60;;;;;;4922790;29;20055;-71
2022/09/10 01:36:08;;;;;;;5.03;1.40;;;15.60;96.60;;;;;;4924257;29;20154;-71
2022/09/10 01:38:37;;;;;;;2.80;1.40;;;15.60;96.70;;;;;;4916748;29;20827;-70
2022/09/10 01:41:04;;;;;;;3.03;1.35;;;15.60;96.70;;;;;;4919180;28;20031;-70
2022/09/10 01:43:35;;;;;;;4.20;1.58;;;15.60;96.80;;;;;;4922509;29;20500;-71
2022/09/10 01:46:19;;;;;;;3.05;1.60;;;15.50;96.80;;;;;;4915451;29;20119;-70
2022/09/10 01:49:36;;;;;;;4.05;1.90;;;15.50;96.90;;;;;;4926240;29;20908;-70
2022/09/10 01:52:11;;;;;;;2.08;1.15;;;15.60;96.90;;;;;;4933513;29;20044;-70
2022/09/10 01:54:49;;;;;;;3.10;1.35;;;15.50;96.80;;;;;;4924623;29;20035;-70
2022/09/10 01:57:29;;;;;;;7.65;1.60;;;15.50;96.90;;;;;;4920209;29;20040;-70
2022/09/10 02:00:08;;;;;;;2.90;1.60;;;15.50;96.90;;;;;;4917195;29;20067;-70
2022/09/10 02:02:58;;;;;;;3.47;1.60;;;15.50;96.90;;;;;;4918518;29;20179;-70
2022/09/10 02:05:30;;;;;;;2.58;1.35;;;15.50;97.00;;;;;;4934234;28;20055;-70
2022/09/10 02:08:00;;;;;;;2.20;1.38;;;15.40;96.90;;;;;;4924273;29;20054;-69
2022/09/10 02:10:27;;;;;;;2.60;1.38;;;15.40;96.90;;;;;;4926493;28;20448;-71
2022/09/10 02:12:54;;;;;;;2.95;1.50;;;15.40;96.90;;;;;;4923076;29;20487;-70
2022/09/10 02:15:40;;;;;;;2.78;1.65;;;15.40;96.70;;;;;;4922411;29;20086;-71
2022/09/10 02:18:20;;;;;;;2.47;1.60;;;15.40;96.70;;;;;;4924217;29;20656;-71
2022/09/10 02:20:50;;;;;;;4.43;1.67;;;15.30;96.80;;;;;;4917406;29;20028;-71
2022/09/10 02:23:18;;;;;;;3.08;1.48;;;15.30;96.90;;;;;;4917674;29;20406;-71
2022/09/10 02:25:45;;;;;;;2.63;1.50;;;15.30;96.90;;;;;;4940022;28;20119;-71
2022/09/10 02:28:12;;;;;;;2.63;1.58;;;15.30;96.90;;;;;;4923893;29;20046;-71
2022/09/10 02:30:38;;;;;;;2.22;1.23;;;15.30;96.90;;;;;;4922848;29;20874;-70
2022/09/10 02:33:03;;;;;;;2.78;1.45;;;15.30;97.00;;;;;;4920966;29;20432;-70
2022/09/10 02:35:30;;;;;;;3.35;1.80;;;15.30;97.10;;;;;;4920437;29;20612;-70
2022/09/10 02:37:57;;;;;;;4.18;1.60;;;15.20;97.10;;;;;;4918055;29;20522;-71
2022/09/10 02:40:23;;;;;;;3.75;1.77;;;15.20;97.20;;;;;;4918154;29;20074;-70
2022/09/10 02:42:49;;;;;;;3.42;1.70;;;15.30;97.20;;;;;;4925383;29;20468;-70
2022/09/10 02:45:21;;;;;;;1.88;1.50;;;15.20;97.20;;;;;;4924910;29;20402;-71
2022/09/10 02:47:47;;;;;;;1.98;1.50;;;15.20;97.20;;;;;;4939754;28;20035;-71
2022/09/10 02:50:14;;;;;;;4.25;1.58;;;15.20;97.30;;;;;;4923480;29;20040;-70
2022/09/10 02:52:40;;;;;;;2.92;1.40;;;15.20;97.20;;;;;;4925309;29;20041;-70
2022/09/10 02:55:08;;;;;;;2.55;1.80;;;15.20;97.10;;;;;;4920852;29;20823;-71
2022/09/10 02:57:33;;;;;;;4.70;1.88;;;15.20;97.00;;;;;;4933962;28;20031;-70
2022/09/10 02:59:59;;;;;;;2.72;1.50;;;15.10;96.90;;;;;;4914807;29;20171;-70
2022/09/10 03:02:26;;;;;;;3.75;1.70;;;15.10;97.10;;;;;;4919839;29;20031;-68
2022/09/10 03:04:53;;;;;;;2.20;1.55;;;15.10;97.10;;;;;;4919485;29;20032;-70
2022/09/10 03:07:19;;;;;;;2.30;1.42;;;15.10;97.10;;;;;;4921304;29;20404;-71
2022/09/10 03:09:46;;;;;;;3.50;1.70;;;15.10;97.10;;;;;;4921620;29;20666;-70
2022/09/10 03:12:13;;;;;;;3.03;1.40;;;15.10;97.00;;;;;;4917691;29;20036;-70
2022/09/10 03:14:39;;;;;;;2.28;1.70;;;15.10;97.30;;;;;;4919717;29;20032;-70
2022/09/10 03:17:05;;;;;;;3.03;1.50;;;15.10;97.40;;;;;;4915274;29;20043;-70
2022/09/10 03:19:31;;;;;;;1.75;1.30;;;15.10;97.50;;;;;;4923398;29;20046;-71
2022/09/10 03:21:58;;;;;;;1.92;1.42;;;15.10;97.50;;;;;;4920014;29;20058;-70
2022/09/10 03:24:24;;;;;;;3.70;1.60;;;15.10;97.50;;;;;;4923420;29;20067;-71
2022/09/10 03:26:50;;;;;;;1.50;1.40;;;15.10;97.60;;;;;;4921027;29;20055;-71
2022/09/10 03:29:16;;;;;;;2.03;1.52;;;15.10;97.30;;;;;;4920294;29;20036;-70
2022/09/10 03:31:43;;;;;;;1.98;1.35;;;15.10;97.20;;;;;;4919275;29;20030;-70
2022/09/10 03:34:11;;;;;;;4.20;1.55;;;15.10;97.30;;;;;;4921558;29;20179;-70
2022/09/10 03:36:37;;;;;;;2.03;1.35;;;15.10;97.30;;;;;;4918429;29;20389;-70
2022/09/10 03:39:05;;;;;;;2.20;1.50;;;15.10;97.20;;;;;;4921452;29;20556;-70
2022/09/10 03:41:31;;;;;;;2.92;2.03;;;15.10;97.10;;;;;;4923162;29;20196;-70
2022/09/10 03:43:58;;;;;;;4.35;1.50;;;15.10;97.00;;;;;;4921783;29;20028;-70
2022/09/10 03:46:25;;;;;;;1.80;1.40;;;15.10;97.00;;;;;;4923651;29;20031;-70
2022/09/10 03:48:54;;;;;;;3.78;1.38;;;15.10;96.90;;;;;;4920495;29;20032;-70
2022/09/10 03:51:22;;;;;;;2.78;1.58;;;15.10;97.00;;;;;;4919645;29;20027;-70
2022/09/10 03:53:48;;;;;;;1.73;1.60;;;15.00;96.90;;;;;;4919162;29;20058;-70
2022/09/10 03:56:18;;;;;;;3.35;1.75;;;15.00;96.90;;;;;;4917341;29;20044;-70
2022/09/10 03:58:45;;;;;;;4.72;1.63;;;15.00;97.10;;;;;;4916069;29;20515;-69
2022/09/10 04:01:11;;;;;;;3.75;1.50;;;15.00;97.10;;;;;;4921864;29;20035;-70
2022/09/10 04:03:41;;;;;;;4.45;1.63;;;15.00;97.10;;;;;;4921438;29;20028;-71
2022/09/10 04:06:11;;;;;;;4.35;1.70;;;15.00;97.10;;;;;;4920842;29;20036;-69
2022/09/10 04:08:37;;;;;;;5.60;1.55;;;15.00;97.20;;;;;;4919446;29;20040;-70
2022/09/10 04:11:06;;;;;;;2.70;1.60;;;15.00;97.20;;;;;;4916072;29;20485;-70
2022/09/10 04:13:32;;;;;;;2.00;1.48;;;14.90;97.20;;;;;;4919263;29;20039;-70
2022/09/10 04:15:59;;;;;;;4.53;1.40;;;15.00;97.20;;;;;;4920859;29;20064;-70
2022/09/10 04:18:26;;;;;;;1.88;1.17;;;14.90;97.20;;;;;;4922932;28;20059;-70
2022/09/10 04:20:52;;;;;;;5.68;1.40;;;14.90;97.10;;;;;;4921292;29;20055;-69
2022/09/10 04:23:19;;;;;;;2.22;1.30;;;15.00;97.20;;;;;;4936399;29;20037;-70
2022/09/10 04:25:45;;;;;;;1.92;1.40;;;14.90;97.10;;;;;;4920334;29;20030;-71
2022/09/10 04:28:12;;;;;;;3.13;1.40;;;14.90;97.10;;;;;;4917133;29;20135;-69
2022/09/10 04:30:39;;;;;;;1.55;1.20;;;14.90;97.10;;;;;;4923612;29;20031;-70
2022/09/10 04:33:06;;;;;;;4.25;1.50;;;14.90;97.10;;;;;;4919456;29;20138;-71
2022/09/10 04:35:32;;;;;;;3.50;1.40;;;14.90;97.10;;;;;;4916234;29;20035;-70
2022/09/10 04:38:01;;;;;;;1.63;1.30;;;14.90;97.20;;;;;;4922223;29;20680;-70
2022/09/10 04:40:26;;;;;;;2.72;1.20;;;14.90;97.10;;;;;;4920891;29;20027;-70
2022/09/10 04:42:52;;;;;;;2.25;1.30;;;14.90;97.10;;;;;;4919878;29;20039;-70
2022/09/10 04:45:18;;;;;;;3.45;1.30;;;14.80;97.00;;;;;;4917625;29;20492;-70
2022/09/10 04:47:48;;;;;;;2.10;1.50;;;14.80;97.10;;;;;;4917842;29;20647;-70
2022/09/10 04:50:14;;;;;;;3.88;1.48;;;14.80;97.30;;;;;;4915171;29;20040;-70
2022/09/10 04:53:00;;;;;;;1.70;1.20;;;14.80;97.10;;;;;;4914931;29;20028;-70
2022/09/10 04:55:26;;;;;;;2.90;1.52;;;14.80;97.10;;;;;;4926192;29;20875;-71
2022/09/10 04:57:53;;;;;;;1.48;1.33;;;14.80;97.10;;;;;;4923596;29;20050;-70
2022/09/10 05:00:19;;;;;;;3.53;1.48;;;14.80;97.10;;;;;;4923371;29;20063;-71
2022/09/10 05:02:45;;;;;;;2.63;1.33;;;14.80;97.10;;;;;;4937115;29;20058;-71
2022/09/10 05:05:12;;;;;;;3.50;1.45;;;14.90;97.10;;;;;;4924654;29;20064;-70
2022/09/10 05:07:39;;;;;;;1.67;1.42;;;14.90;97.00;;;;;;4933717;29;20036;-70
2022/09/10 05:10:09;;;;;;;2.70;1.30;;;14.80;97.00;;;;;;4917152;29;20032;-70
2022/09/10 05:12:37;;;;;;;2.78;1.40;;;14.90;97.10;;;;;;4934736;28;20035;-71
2022/09/10 05:15:05;;;;;;;1.50;1.17;;;14.90;97.10;;;;;;4922588;29;20031;-70
2022/09/10 05:17:32;;;;;;;2.55;1.48;;;14.90;97.20;;;;;;4938962;28;20516;-71
2022/09/10 05:19:58;;;;;;;1.42;1.15;;;14.90;97.20;;;;;;4922792;29;20416;-71
2022/09/10 05:22:24;;;;;;;2.45;1.20;;;14.90;97.10;;;;;;4922829;29;20024;-70
2022/09/10 05:24:50;;;;;;;2.33;1.20;;;14.90;97.00;;;;;;4925072;29;20119;-70
2022/09/10 05:27:16;;;;;;;6.22;1.55;;;14.90;97.00;;;;;;4919880;29;20150;-70
2022/09/10 05:29:43;;;;;;;4.43;1.20;;;14.90;97.10;;;;;;4919252;29;20039;-70
2022/09/10 05:32:10;;;;;;;5.35;1.40;;;14.90;97.00;;;;;;4914562;29;20147;-69
2022/09/10 05:34:38;;;;;;;1.55;1.20;;;15.00;97.00;;;;;;4923148;29;20035;-69
2022/09/10 05:37:04;;;;;;;2.35;1.30;;;15.00;97.00;;;;;;4923612;29;20042;-69
2022/09/10 05:39:30;;;;;;;1.20;1.10;;;14.90;97.10;;;;;;4922437;29;20116;-69
2022/09/10 05:41:56;;;;;;;1.73;1.13;;;15.00;97.10;;;;;;4919514;29;20501;-70
2022/09/10 05:44:22;;;;;;;2.85;1.20;;;15.00;97.20;;;;;;4919045;29;20027;-69
2022/09/10 05:46:48;;;;;;;4.38;1.10;;;15.00;97.20;;;;;;4917388;29;20035;-70
2022/09/10 05:49:15;;;;;;;2.45;1.40;;;15.00;97.20;;;;;;4924507;29;20032;-69
2022/09/10 05:51:41;;;;;;;1.15;0.98;;;15.10;97.30;;;;;;4923463;29;20039;-69
2022/09/10 05:54:08;;;;;;;4.13;1.42;;;15.10;97.40;;;;;;4925261;29;20452;-69
2022/09/10 05:56:34;;;;;;;4.43;1.52;;;15.20;97.40;;;;;;4923572;29;20712;-70
2022/09/10 05:59:02;;;;;;;2.53;1.13;;;15.20;97.50;;;;;;4922391;29;20411;-69
2022/09/10 06:01:30;;;;;;;2.63;1.25;;;15.30;97.50;;;;;;4922594;29;20035;-69
2022/09/10 06:03:58;;;;;;;3.45;1.40;;;15.40;97.20;;;;;;4918170;29;20054;-69
2022/09/10 06:06:27;;;;;;;1.98;1.40;;;15.50;96.90;;;;;;4919152;29;20027;-69
2022/09/10 06:08:59;;;;;;;1.40;1.02;;;15.50;96.70;;;;;;4915077;29;20040;-69
2022/09/10 06:11:53;;;;;;;4.20;1.13;;;15.60;96.60;;;;;;4918680;29;20036;-70
2022/09/10 06:14:19;;;;;;;3.10;1.10;;;15.70;96.60;;;;;;4940106;29;20119;-69
2022/09/10 06:16:45;;;;;;;5.90;1.73;;;15.70;96.70;;;;;;4924612;29;20039;-70
2022/09/10 06:19:11;;;;;;;3.95;1.30;;;15.80;96.60;;;;;;4920231;29;20111;-69
2022/09/10 06:21:38;;;;;;;4.15;1.27;;;15.90;96.10;;;;;;4921050;29;20544;-69
2022/09/10 06:24:04;;;;;;;2.85;1.20;;;15.90;96.00;;;;;;4917182;29;20115;-69
2022/09/10 06:26:33;;;;;;;3.10;1.33;;;16.00;95.90;;;;;;4920161;29;20062;-69
2022/09/10 06:29:04;;;;;;;5.20;1.20;;;16.10;95.60;;;;;;4922600;29;20658;-70
2022/09/10 06:31:30;;;;;;;3.25;1.23;;;16.10;95.60;;;;;;4924739;29;20059;-70
2022/09/10 06:33:58;;;;;;;1.83;0.95;;;16.20;95.30;;;;;;4922781;29;20043;-70
2022/09/10 06:36:28;;;;;;;1.38;1.00;;;16.30;95.30;;;;;;4925258;29;20046;-69
2022/09/10 06:38:57;;;;;;;1.90;1.05;;;16.40;95.30;;;;;;4919720;29;20039;-70
2022/09/10 06:41:23;;;;;;;2.20;1.33;;;16.60;95.60;;;;;;4924740;29;20027;-70
2022/09/10 06:43:57;;;;;;;3.30;0.88;;;16.90;95.90;;;;;;4921848;29;20031;-70
2022/09/10 06:46:35;;;;;;;2.90;1.20;;;17.30;94.70;;;;;;4917302;29;20031;-70
2022/09/10 06:49:10;;;;;;;1.50;1.17;;;17.40;93.70;;;;;;4925014;29;20039;-69
2022/09/10 06:51:38;;;;;;;3.42;1.05;;;17.50;93.50;;;;;;4938202;28;20024;-70
2022/09/10 06:54:04;;;;;;;1.92;1.10;;;17.50;93.30;;;;;;4922551;29;20035;-69
2022/09/10 06:56:31;;;;;;;1.15;0.90;;;17.50;93.30;;;;;;4920711;29;20038;-69
2022/09/10 06:58:59;;;;;;;2.47;1.10;;;17.70;93.30;;;;;;4919771;29;20135;-70
2022/09/10 07:01:29;;;;;;;2.38;1.10;;;17.80;93.20;;;;;;4920366;29;20038;-69
2022/09/10 07:03:59;;;;;;;1.50;1.10;;;17.90;92.50;;;;;;4922188;29;20024;-69
2022/09/10 07:06:27;;;;;;;3.70;1.15;;;18.00;92.20;;;;;;4916222;29;20039;-69
2022/09/10 07:09:02;;;;;;;;;;;18.10;91.90;;;;;;4920257;29;20043;-70
2022/09/10 07:11:33;;;;;;;2.58;1.30;;;18.30;91.40;;;;;;4921993;29;20835;-70
2022/09/10 07:14:01;;;;;;;4.50;1.00;;;18.60;91.20;;;;;;4919132;29;20606;-70
2022/09/10 07:16:30;;;;;;;3.92;1.02;;;18.80;90.60;;;;;;4922912;29;20103;-70
2022/09/10 07:18:58;;;;;;;2.55;1.17;;;18.90;89.50;;;;;;4916558;29;20124;-69
2022/09/10 07:21:36;;;;;;;2.35;1.20;;;18.90;88.70;;;;;;4920726;29;20384;-70
2022/09/10 07:24:11;;;;;;;2.47;0.80;;;18.90;89.30;;;;;;4914478;29;20035;-69
2022/09/10 07:26:38;;;;;;;3.38;1.15;;;18.80;89.60;;;;;;4919413;29;20031;-69
2022/09/10 07:29:04;;;;;;;1.42;0.90;;;18.80;89.90;;;;;;4923544;29;20047;-70
2022/09/10 07:31:33;;;;;;;0.75;0.75;;;18.90;89.50;;;;;;4923082;29;20042;-70
2022/09/10 07:34:05;;;;;;;2.05;0.93;;;18.90;90.00;;;;;;4915503;29;20043;-70
2022/09/10 07:36:31;;;;;;;6.00;1.25;;;18.90;90.10;;;;;;4917193;29;20032;-70
2022/09/10 07:39:02;;;;;;;4.63;1.23;;;19.00;89.60;;;;;;4914393;29;20032;-70
2022/09/10 07:41:33;;;;;;;1.20;0.80;;;19.10;89.70;;;;;;4917995;29;20020;-70
2022/09/10 07:44:00;;;;;;;2.67;0.98;;;19.30;89.00;;;;;;4928164;29;20040;-70
2022/09/10 07:46:32;;;;;;;3.55;1.10;;;19.50;88.60;;;;;;4922591;29;20079;-70
2022/09/10 07:49:00;;;;;;;3.35;1.10;;;19.50;87.80;;;;;;4936684;28;20534;-70
2022/09/10 07:51:28;;;;;;;1.75;1.00;;;19.60;87.60;;;;;;4921072;29;20111;-69
2022/09/10 07:53:58;;;;;;;3.03;1.15;;;19.60;86.60;;;;;;4923952;29;20027;-70
2022/09/10 07:56:31;;;;;;;2.83;1.50;;;19.60;86.90;;;;;;4919868;29;20460;-70
2022/09/10 07:58:57;;;;;;;4.30;1.10;;;19.70;87.40;;;;;;4919887;29;20074;-70
2022/09/10 08:01:27;;;;;;;2.15;1.10;;;19.80;86.60;;;;;;4917175;29;20031;-70
2022/09/10 08:03:59;;;;;;;4.82;0.80;;;19.70;87.10;;;;;;4932296;28;20032;-70
2022/09/10 08:06:28;;;;;;;3.47;1.13;;;19.80;87.50;;;;;;4919259;29;20661;-70
2022/09/10 08:08:54;;;;;;;3.38;1.10;;;19.80;87.10;;;;;;4920868;29;20051;-70
2022/09/10 08:11:21;;;;;;;1.80;0.80;;;19.90;86.70;;;;;;4920161;29;20035;-70
2022/09/10 08:13:52;;;;;;;3.05;0.90;;;19.90;86.80;;;;;;4918549;29;20039;-69
2022/09/10 08:16:25;;;;;;;3.58;1.08;;;20.00;85.60;;;;;;4923896;29;20070;-69
2022/09/10 08:18:59;;;;;;;7.75;1.30;;;20.10;85.70;;;;;;4930784;28;20044;-70
2022/09/10 08:21:29;;;;;;;2.85;1.38;;;20.10;85.10;;;;;;4923835;29;20023;-72
2022/09/10 08:23:57;;;;;;;2.50;1.00;;;20.10;84.60;;;;;;4923621;29;20380;-70
2022/09/10 08:26:26;;;;;;;3.83;1.85;;;20.20;84.50;;;;;;4923394;29;20118;-70
2022/09/10 08:28:55;;;;;;;1.45;0.70;;;20.20;84.00;;;;;;4924058;29;20034;-70
2022/09/10 08:31:23;;;;;;;2.35;1.08;;;20.20;84.60;;;;;;4911529;29;20032;-69
2022/09/10 08:33:55;;;;;;;3.13;1.10;;;20.20;84.90;;;;;;4923447;29;20050;-70
2022/09/10 08:36:25;;;;;;;3.85;1.00;;;20.20;85.30;;;;;;4927295;29;20153;-70
2022/09/10 08:38:53;;;;;;;2.20;1.25;;;20.30;85.10;;;;;;4919592;29;20028;-70
2022/09/10 08:41:44;;;;;;;4.20;1.38;;;20.40;84.40;;;;;;4921071;29;20036;-70
2022/09/10 08:44:49;;;;;;;4.30;1.70;;;20.60;84.20;;;;;;4942466;28;20512;-70
2022/09/10 08:47:20;;;;;;;4.68;1.13;;;20.70;84.70;;;;;;4940602;29;20836;-70
2022/09/10 08:49:53;;;;;;;1.85;1.00;;;20.90;84.40;;;;;;4937723;29;20099;-73
2022/09/10 08:52:21;;;;;;;3.50;1.00;;;21.10;83.90;;;;;;4922553;29;20445;-69
2022/09/10 08:55:18;;;;;;;5.45;1.40;;;21.30;82.10;;;;;;4923498;29;20035;-70
2022/09/10 08:57:47;;;;;;;2.25;1.00;;;21.40;81.50;;;;;;4919688;29;20432;-70
2022/09/10 09:00:21;;;;;;;3.80;1.15;;;21.50;80.70;;;;;;4920345;29;20739;-70
2022/09/10 09:03:14;;;;;;;8.00;1.30;;;21.50;80.80;;;;;;4925680;29;20035;-71
2022/09/10 09:06:04;;;;;;;3.65;1.27;;;21.40;81.10;;;;;;4939362;29;20036;-70
2022/09/10 09:08:47;;;;;;;3.45;1.27;;;21.40;80.90;;;;;;4922332;29;20411;-69
2022/09/10 09:11:38;;;;;;;2.55;1.10;;;21.40;81.20;;;;;;4920385;29;20036;-70
2022/09/10 09:14:35;;;;;;;6.20;1.20;;;21.40;81.00;;;;;;4920003;29;20043;-70
2022/09/10 09:17:21;;;;;;;2.72;1.40;;;21.40;82.90;;;;;;4916432;29;20036;-71
2022/09/10 09:20:04;;;;;;;6.82;1.38;;;21.50;81.40;;;;;;4921678;29;20039;-70
2022/09/10 09:22:51;;;;;;;2.97;1.38;;;21.60;80.80;;;;;;4925274;29;20031;-70
2022/09/10 09:25:22;;;;;;;2.78;1.02;;;21.70;79.80;;;;;;4926188;29;20745;-71
2022/09/10 09:27:54;;;;;;;2.78;0.75;;;21.70;80.80;;;;;;4922675;29;20366;-70
2022/09/10 09:30:47;;;;;;;3.65;1.42;;;21.70;80.90;;;;;;4925618;29;20492;-71
2022/09/10 09:33:17;;;;;;;3.45;1.20;;;21.90;79.30;;;;;;4922054;29;20055;-70
2022/09/10 09:35:53;;;;;;;2.40;1.00;;;21.90;77.80;;;;;;4917581;29;20122;-70
2022/09/10 09:38:42;;;;;;;3.17;1.15;;;21.90;78.70;;;;;;4925092;29;20049;-70
2022/09/10 09:41:27;;;;;;;2.60;1.05;;;22.00;79.30;;;;;;4924186;29;20046;-70
2022/09/10 09:44:05;;;;;;;6.93;1.17;;;22.10;77.40;;;;;;4940399;28;20038;-70
2022/09/10 09:46:33;;;;;;;3.70;1.40;;;22.20;75.60;;;;;;4918810;29;20046;-70
2022/09/10 09:49:01;;;;;;;2.03;1.20;;;22.20;76.20;;;;;;4923070;29;20954;-70
2022/09/10 09:51:34;;;;;;;3.28;1.20;;;22.20;76.10;;;;;;4935923;28;20149;-70
2022/09/10 09:54:06;;;;;;;3.20;1.08;;;22.30;75.80;;;;;;4920928;29;20115;-69
2022/09/10 09:56:41;;;;;;;1.98;0.95;;;22.30;76.00;;;;;;4919183;29;20031;-70
2022/09/10 09:59:20;;;;;;;3.88;1.13;;;22.30;77.10;;;;;;4925339;28;20040;-70
2022/09/10 10:01:46;;;;;;;1.38;0.77;;;22.40;75.50;;;;;;4926005;28;20071;-70
2022/09/10 10:04:24;;;;;;;2.55;1.05;;;22.30;75.20;;;;;;4922763;29;20076;-70
2022/09/10 10:06:55;;;;;;;2.65;1.00;;;22.50;74.00;;;;;;4920991;29;20043;-70
2022/09/10 10:09:28;;;;;;;2.33;1.00;;;22.40;74.80;;;;;;4919923;29;20119;-70
2022/09/10 10:12:03;;;;;;;2.53;1.23;;;22.90;73.40;;;;;;4918656;29;20035;-70
2022/09/10 10:14:35;;;;;;;2.72;1.10;;;23.10;72.00;;;;;;4919303;29;20122;-70
2022/09/10 10:17:01;;;;;;;2.70;1.00;;;23.60;71.60;;;;;;4922347;29;20134;-70
2022/09/10 10:19:35;;;;;;;1.60;0.77;;;23.70;70.00;;;;;;4923761;28;20031;-70
2022/09/10 10:22:13;;;;;;;2.63;0.93;;;23.60;70.00;;;;;;4921995;29;20035;-69
2022/09/10 10:24:41;;;;;;;2.47;0.82;;;23.50;69.00;;;;;;4924717;29;20090;-70
2022/09/10 10:27:28;;;;;;;2.63;0.98;;;23.30;69.00;;;;;;4919002;29;20035;-70
2022/09/10 10:30:15;;;;;;;5.05;1.27;;;23.20;71.00;;;;;;4916035;29;20088;-70
2022/09/10 10:32:54;;;;;;;1.85;0.93;;;23.20;71.40;;;;;;4912580;29;20563;-70
2022/09/10 10:35:32;;;;;;;0.60;0.52;;;23.10;72.50;;;;;;4921943;29;20035;-71
2022/09/10 10:38:14;;;;;;;3.13;0.88;;;23.20;71.10;;;;;;4922186;29;20091;-69
2022/09/10 10:41:29;;;;;;;5.22;0.75;;;23.20;71.50;;;;;;4920055;29;20123;-70
2022/09/10 10:44:16;;;;;;;3.47;1.00;;;23.20;70.70;;;;;;4917982;29;20043;-71
2022/09/10 10:46:52;;;;;;;2.88;0.90;;;23.30;71.80;;;;;;4920500;29;20019;-72
2022/09/10 10:49:24;;;;;;;;;;;23.40;71.90;;;;;;4918223;29;20179;-70
2022/09/10 10:52:11;;;;;;;2.78;0.80;;;23.50;70.50;;;;;;4915139;28;19915;-69
2022/09/10 10:54:55;;;;;;;3.33;1.00;;;23.70;69.50;;;;;;4918846;29;20038;-70
2022/09/10 10:57:38;;;;;;;2.08;1.08;;;23.70;69.80;;;;;;4923402;29;20376;-70
2022/09/10 11:00:09;;;;;;;2.53;0.90;;;23.70;70.00;;;;;;4934610;29;20035;-71
2022/09/10 11:02:38;;;;;;;2.67;1.00;;;23.70;70.50;;;;;;4922170;29;20452;-70
2022/09/10 11:05:29;;;;;;;3.25;1.20;;;23.60;69.50;;;;;;4917854;29;20159;-71
2022/09/10 11:08:00;;;;;;;2.08;1.00;;;23.40;70.20;;;;;;4916105;29;20048;-70
2022/09/10 11:10:38;;;;;;;3.38;1.00;;;23.20;71.00;;;;;;4920984;29;20035;-70
2022/09/10 11:13:23;;;;;;;1.73;0.63;;;23.20;71.10;;;;;;5058365;28;20399;-71
2022/09/10 11:16:13;;;;;;;4.07;1.08;;;23.10;70.90;;;;;;5057009;28;20037;-71
2022/09/10 11:18:52;;;;;;;2.42;0.80;;;23.20;71.30;;;;;;5050990;28;20025;-70
2022/09/10 11:21:38;;;;;;;2.45;0.95;;;23.20;70.70;;;;;;5053812;28;20033;-71
2022/09/10 11:24:25;;;;;;;2.63;0.80;;;23.20;71.50;;;;;;5051140;28;20111;-71
2022/09/10 11:27:31;;;;;;;0.80;0.60;;;23.30;71.80;;;;;;5052314;28;20734;-71
2022/09/10 11:30:04;;;;;;;1.63;0.60;;;23.30;70.70;;;;;;5051174;28;20115;-71
2022/09/10 11:32:41;;;;;;;3.30;0.82;;;23.40;69.50;;;;;;5054408;28;20078;-71
2022/09/10 11:35:38;;;;;;;2.30;0.95;;;23.40;69.00;;;;;;5057006;28;20040;-71
2022/09/10 11:38:22;;;;;;;1.70;0.60;;;23.30;70.60;;;;;;5054617;28;20578;-70
2022/09/10 11:41:08;;;;;;;1.92;0.60;;;23.20;68.50;;;;;;5052475;28;20078;-73
2022/09/10 11:44:11;;;;;;;1.85;0.80;;;23.30;71.20;;;;;;5053565;28;20863;-70
2022/09/10 11:46:58;;;;;;;1.65;0.70;;;23.30;70.20;;;;;;5051966;28;20032;-71
2022/09/10 11:49:31;;;;;;;3.30;1.00;;;23.30;68.60;;;;;;5050069;28;20025;-71
2022/09/10 11:51:56;;;;;;;1.67;0.68;;;23.40;69.30;;;;;;5054788;28;20032;-71
2022/09/10 11:54:27;;;;;;;4.15;0.65;;;23.40;68.80;;;;;;5057433;28;20777;-71
2022/09/10 11:57:15;;;;;;;3.38;1.00;;;23.40;69.70;;;;;;5055040;28;20048;-71
2022/09/10 11:59:53;;;;;;;1.38;0.50;;;23.40;68.40;;;;;;5052747;28;20091;-71
2022/09/10 12:02:37;;;;;;;1.75;0.60;;;23.40;66.80;;;;;;5052509;28;20120;-71
2022/09/10 12:05:22;;;;;;;0.82;0.70;;;23.50;67.10;;;;;;5049024;28;20063;-71
2022/09/10 12:08:18;;;;;;;1.50;0.80;;;23.40;65.20;;;;;;5050512;28;20686;-71
2022/09/10 12:11:00;;;;;;;0.50;0.40;;;23.50;66.40;;;;;;5055542;28;20494;-72
2022/09/10 12:13:26;;;;;;;3.53;0.77;;;23.50;67.20;;;;;;5053664;28;20116;-71
2022/09/10 12:15:57;;;;;;;1.17;0.55;;;23.60;66.70;;;;;;5055063;28;20096;-71
2022/09/10 12:18:27;;;;;;;1.40;0.80;;;23.70;66.90;;;;;;5052173;28;20397;-70
2022/09/10 12:21:01;;;;;;;2.58;1.02;;;23.70;66.80;;;;;;5049510;28;20067;-71
2022/09/10 12:23:36;;;;;;;1.77;0.63;;;23.70;66.80;;;;;;5043423;28;20047;-71
2022/09/10 12:26:08;;;;;;;0.70;0.70;;;23.70;66.90;;;;;;5034068;28;20053;-71
2022/09/10 12:28:40;;;;;;;2.70;0.90;;;23.80;67.50;;;;;;5040092;28;20032;-71
2022/09/10 12:31:08;;;;;;;2.35;1.05;;;23.90;69.60;;;;;;5041738;28;20041;-70
2022/09/10 12:33:42;;;;;;;3.42;0.93;;;24.00;69.40;;;;;;5041998;28;20100;-71
2022/09/10 12:36:13;;;;;;;2.13;0.80;;;24.00;68.30;;;;;;5039581;28;20057;-72
2022/09/10 12:39:19;;;;;;;3.05;0.68;;;24.00;69.40;;;;;;5039694;28;20805;-71
2022/09/10 12:41:44;;;;;;;2.92;0.88;;;24.10;68.30;;;;;;5038011;28;20749;-71
2022/09/10 12:44:33;;;;;;;2.53;0.80;;;24.10;66.90;;;;;;5035160;28;20025;-71
2022/09/10 12:47:15;;;;;;;3.75;1.10;;;24.00;67.80;;;;;;5036523;28;20123;-71
2022/09/10 12:49:53;;;;;;;0.90;0.68;;;23.90;67.90;;;;;;5037360;28;20029;-71
2022/09/10 12:52:52;;;;;;;3.03;1.00;;;23.80;68.00;;;;;;5040710;28;20037;-71
2022/09/10 12:55:36;;;;;;;1.25;0.73;;;23.80;68.70;;;;;;5041360;28;20029;-71
2022/09/10 12:58:23;;;;;;;1.70;0.70;;;23.60;68.30;;;;;;5036621;28;20092;-71
2022/09/10 13:00:56;;;;;;;0.55;0.40;;;23.30;67.60;;;;;;5036726;28;20373;-70
2022/09/10 13:03:27;;;;;;;3.00;0.65;;;23.20;67.40;;;;;;5036654;28;20039;-69
2022/09/10 13:06:05;;;;;;;3.47;0.75;;;23.00;68.30;;;;;;5036064;28;20035;-69
2022/09/10 13:08:43;;;;;;;2.92;1.00;;;22.80;69.00;;;;;;5039592;28;20024;-69
2022/09/10 13:11:22;;;;;;;2.78;0.75;;;22.60;69.30;;;;;;5038655;28;20123;-68
2022/09/10 13:13:56;;;;;;;0.70;0.65;;;22.60;69.30;;;;;;5039276;28;20159;-68
2022/09/10 13:16:25;;;;;;;1.65;0.60;;;22.50;69.80;;;;;;5037877;28;20061;-69
2022/09/10 13:18:52;;;;;;;1.88;0.70;;;22.40;69.80;;;;;;5035766;28;20115;-69